หน้าหลัก
METAR-TAF:

METAR-TAF

ท่าอากาศยาน :

ท่าอากาศยานโคเปนเฮเกน

โคเปนเฮเกน, เดนมาร์ก

ละติจูด: 55-37N, ลองจิจูด: 012-39E, ความสูง: 5 ม.

การสังเกตสภาพอากาศปัจจุบัน

รายงานได้ทำขึ้นเมื่อ 39 นาทีที่แล้ว ณ เวลา 19:50 UTC
ลม 6 นอตจากเหนือ
อุณหภูมิ 18°C
ความชื้น 45%
ความกดอากาศ 1024 hPa
ทัศนวิสัย 10 กม. หรือมากกว่า

METAR: EKCH 011950Z AUTO 35006KT 9999 NCD 18/06 Q1024 NOSIG

เวลา: 22:29 (20:29 UTC)

การพยากรณ์

รายงานได้ทำขึ้นเมื่อ 3 ชั่วโมงและ 28 นาทีที่แล้ว ณ เวลา 17:01 UTC
การพยากรณ์มีผลตั้งแต่วันที่ 01 ณ เวลา 18 UTC จนถึงวันที่ 02 ณ เวลา 18 UTC
ลม 8 นอตจากเหนือ
ทัศนวิสัย 10 กม. หรือมากกว่า
ไม่มีเมฆต่ำกว่า 1,500 ม. และไม่มีเมฆคิวมูโลนิมบัส

TAF: EKCH 011701Z 0118/0218 01008KT CAVOK

สังเกตการณ์สภาพอากาศและพยากรณ์อากาศของสนามบินมากกว่า 4000 แห่ง (รายงาน METAR และ TAF).

สถานีที่ดูได้จะแสดงไว้ด้วยจุดสีเหลืองและสีแดงบนแผนที่.

เลื่อนเมาส์ไปเหนือจุดเพื่อดูชื่อสถานี.

แล้วคลิกเพื่อดูสังเกตการณ์และการพยากรณ์สภาพอากาศ.

ในการเปลี่ยนแผนที่: คลิกที่ปุ่มสีเขียวที่มีกากบาทสีดำเพื่อซูมเข้า; ที่ปุ่มสีเขียวที่มีขีดเพื่อซูมออก; หรือที่ลูกศรสีเขียวเพื่อไปยังแผนที่ที่อยู่ติดกัน.


METAR-TAF: